createdAt,value
2015-08-21T00:00:08.266Z,74437
2015-08-21T00:00:20.674Z,74432
2015-08-21T00:00:33.080Z,74442
2015-08-21T00:00:45.315Z,74435
2015-08-21T00:00:57.721Z,74434
2015-08-21T00:01:10.127Z,74442
2015-08-21T00:01:22.536Z,74431
2015-08-21T00:01:34.926Z,74439
2015-08-21T00:01:47.332Z,74433
2015-08-21T00:01:59.739Z,74435
2015-08-21T00:02:11.442Z,74434
2015-08-21T00:02:23.819Z,74431
2015-08-21T00:02:36.038Z,74439
2015-08-21T00:02:48.413Z,74435
2015-08-21T00:03:00.772Z,74439
2015-08-21T00:03:13.163Z,74440
2015-08-21T00:03:25.524Z,74434
2015-08-21T00:03:37.899Z,74440
2015-08-21T00:03:50.274Z,74435
2015-08-21T00:04:02.649Z,74444
2015-08-21T00:04:15.008Z,74434
2015-08-21T00:04:27.370Z,74433
2015-08-21T00:04:39.729Z,74432
2015-08-21T00:04:52.104Z,74435
2015-08-21T00:05:04.479Z,74435
2015-08-21T00:05:16.885Z,74432
2015-08-21T00:05:29.262Z,74436
2015-08-21T00:05:41.637Z,74434
2015-08-21T00:05:54.012Z,74435
2015-08-21T00:06:06.387Z,74437
2015-08-21T00:06:18.762Z,74434
2015-08-21T00:06:31.139Z,74432
2015-08-21T00:06:43.514Z,74438
2015-08-21T00:06:55.889Z,74435
2015-08-21T00:07:08.264Z,74443
2015-08-21T00:07:20.639Z,74431
2015-08-21T00:07:33.016Z,74436
2015-08-21T00:07:44.673Z,74433
2015-08-21T00:07:57.063Z,74436
2015-08-21T00:08:09.438Z,74434
2015-08-21T00:08:21.829Z,74434
2015-08-21T00:08:34.253Z,74434
2015-08-21T00:08:46.643Z,74439
2015-08-21T00:08:59.018Z,74434
2015-08-21T00:09:11.409Z,74438
2015-08-21T00:09:23.815Z,74432
2015-08-21T00:09:36.207Z,74435
2015-08-21T00:09:48.629Z,74430
2015-08-21T00:10:01.019Z,74435
2015-08-21T00:10:13.426Z,74433
2015-08-21T00:10:25.816Z,74431
2015-08-21T00:10:38.209Z,74433
2015-08-21T00:10:50.631Z,74433
2015-08-21T00:11:03.053Z,74432
2015-08-21T00:11:15.443Z,74438
2015-08-21T00:11:27.834Z,74434
2015-08-21T00:11:40.243Z,74438
2015-08-21T00:11:52.618Z,74436
2015-08-21T00:12:04.993Z,74430
2015-08-21T00:12:17.368Z,74435
2015-08-21T00:12:29.743Z,74434
2015-08-21T00:12:42.120Z,74433
2015-08-21T00:12:54.495Z,74433
2015-08-21T00:13:06.870Z,74434
2015-08-21T00:13:19.261Z,74433
2015-08-21T00:13:31.620Z,74435
2015-08-21T00:13:44.013Z,74431
2015-08-21T00:13:56.231Z,74430
2015-08-21T00:14:08.606Z,74432
2015-08-21T00:14:20.981Z,74431
2015-08-21T00:14:33.356Z,74431
2015-08-21T00:14:45.733Z,74429
2015-08-21T00:14:58.108Z,74430
2015-08-21T00:15:10.483Z,74437
2015-08-21T00:15:22.858Z,74431
2015-08-21T00:15:35.233Z,74433
2015-08-21T00:15:47.610Z,74429
2015-08-21T00:16:00.001Z,74432
2015-08-21T00:16:12.392Z,74429
2015-08-21T00:16:24.610Z,74431
2015-08-21T00:16:36.985Z,74432
2015-08-21T00:16:49.362Z,74430
2015-08-21T00:17:01.737Z,74434
2015-08-21T00:17:14.112Z,74428
2015-08-21T00:17:26.487Z,74431
2015-08-21T00:17:38.722Z,74430
2015-08-21T00:17:51.099Z,74433
2015-08-21T00:18:03.521Z,74433
2015-08-21T00:18:15.911Z,74436
2015-08-21T00:18:28.286Z,74428
2015-08-21T00:18:40.677Z,74434
2015-08-21T00:18:53.085Z,74429
2015-08-21T00:19:05.507Z,74428
2015-08-21T00:19:17.913Z,74428
2015-08-21T00:19:30.304Z,74427
2015-08-21T00:19:42.710Z,74429
2015-08-21T00:19:55.102Z,74425
2015-08-21T00:20:07.508Z,74433
2015-08-21T00:20:19.930Z,74427
2015-08-21T00:20:32.321Z,74429
2015-08-21T00:20:44.727Z,74427
2015-08-21T00:20:57.120Z,74429
2015-08-21T00:21:09.527Z,74428
2015-08-21T00:21:21.902Z,74428
2015-08-21T00:21:34.277Z,74428
2015-08-21T00:21:46.652Z,74427
2015-08-21T00:21:59.029Z,74431
2015-08-21T00:22:11.404Z,74426
2015-08-21T00:22:23.779Z,74432
2015-08-21T00:22:36.154Z,74431
2015-08-21T00:22:48.544Z,74433
2015-08-21T00:23:00.920Z,74432
2015-08-21T00:23:13.295Z,74432
2015-08-21T00:23:25.670Z,74430
2015-08-21T00:23:38.045Z,74429
2015-08-21T00:23:50.420Z,74427
2015-08-21T00:24:02.797Z,74429
2015-08-21T00:24:15.188Z,74429
2015-08-21T00:24:27.563Z,74429
2015-08-21T00:24:39.938Z,74424
2015-08-21T00:24:52.313Z,74433
2015-08-21T00:25:04.691Z,74429
2015-08-21T00:25:17.066Z,74429
2015-08-21T00:25:29.441Z,74428
2015-08-21T00:25:41.832Z,74427
2015-08-21T00:25:54.191Z,74429
2015-08-21T00:26:06.568Z,74433
2015-08-21T00:26:18.943Z,74425
2015-08-21T00:26:31.318Z,74428
2015-08-21T00:26:43.693Z,74427
2015-08-21T00:26:56.068Z,74430
2015-08-21T00:27:08.461Z,74425
2015-08-21T00:27:20.851Z,74426
2015-08-21T00:27:33.242Z,74433
2015-08-21T00:27:45.617Z,74428
2015-08-21T00:27:58.007Z,74432
2015-08-21T00:28:10.399Z,74424
2015-08-21T00:28:22.805Z,74430
2015-08-21T00:28:35.212Z,74429
2015-08-21T00:28:47.618Z,74429
2015-08-21T00:29:00.008Z,74430
2015-08-21T00:29:12.418Z,74428
2015-08-21T00:29:24.824Z,74428
2015-08-21T00:29:37.215Z,74429
2015-08-21T00:29:49.636Z,74425
2015-08-21T00:30:02.043Z,74432
2015-08-21T00:30:14.294Z,74426
2015-08-21T00:30:26.559Z,74427
2015-08-21T00:30:38.622Z,74431
2015-08-21T00:30:50.684Z,74428
2015-08-21T00:31:02.919Z,74432
2015-08-21T00:31:14.827Z,74427
2015-08-21T00:31:27.061Z,74430
2015-08-21T00:31:39.124Z,74433
2015-08-21T00:31:51.171Z,74427
2015-08-21T00:32:03.249Z,74433
2015-08-21T00:32:15.471Z,74427
2015-08-21T00:32:27.854Z,74430
2015-08-21T00:32:39.776Z,74428
2015-08-21T00:32:51.995Z,74430
2015-08-21T00:33:04.370Z,74427
2015-08-21T00:33:16.747Z,74428
2015-08-21T00:33:29.138Z,74430
2015-08-21T00:33:41.513Z,74428
2015-08-21T00:33:53.888Z,74427
2015-08-21T00:34:06.263Z,74429
2015-08-21T00:34:18.639Z,74425
2015-08-21T00:34:31.014Z,74427
2015-08-21T00:34:43.404Z,74428
2015-08-21T00:34:55.779Z,74431
2015-08-21T00:35:08.154Z,74427
2015-08-21T00:35:20.531Z,74428
2015-08-21T00:35:32.906Z,74428
2015-08-21T00:35:45.281Z,74430
2015-08-21T00:35:57.656Z,74425
2015-08-21T00:36:10.031Z,74424
2015-08-21T00:36:22.424Z,74430
2015-08-21T00:36:34.799Z,74429
2015-08-21T00:36:47.189Z,74431
2015-08-21T00:36:59.564Z,74429
2015-08-21T00:37:11.939Z,74425
2015-08-21T00:37:24.332Z,74425
2015-08-21T00:37:36.738Z,74425
2015-08-21T00:37:49.145Z,74427
2015-08-21T00:38:01.395Z,74426
2015-08-21T00:38:13.082Z,74425
2015-08-21T00:38:25.490Z,74426
2015-08-21T00:38:37.897Z,74428
2015-08-21T00:38:50.303Z,74425
2015-08-21T00:39:02.693Z,74428
2015-08-21T00:39:15.115Z,74424
2015-08-21T00:39:26.805Z,74430
2015-08-21T00:39:39.211Z,74430
2015-08-21T00:39:51.586Z,74426
2015-08-21T00:40:03.961Z,74424
2015-08-21T00:40:16.336Z,74422
2015-08-21T00:40:28.714Z,74428
2015-08-21T00:40:41.089Z,74422
2015-08-21T00:40:53.464Z,74423
2015-08-21T00:41:05.839Z,74425
2015-08-21T00:41:18.230Z,74422
2015-08-21T00:41:30.606Z,74431
2015-08-21T00:41:42.981Z,74423
2015-08-21T00:41:55.356Z,74421
2015-08-21T00:42:07.731Z,74427
2015-08-21T00:42:20.106Z,74420
2015-08-21T00:42:32.483Z,74424
2015-08-21T00:42:44.873Z,74426
2015-08-21T00:42:56.530Z,74420
2015-08-21T00:43:08.905Z,74425
2015-08-21T00:43:21.280Z,74426
2015-08-21T00:43:33.657Z,74419
2015-08-21T00:43:46.032Z,74425
2015-08-21T00:43:58.407Z,74423
2015-08-21T00:44:10.078Z,74420
2015-08-21T00:44:22.453Z,74425
2015-08-21T00:44:34.112Z,74420
2015-08-21T00:44:46.487Z,74426
2015-08-21T00:44:58.862Z,74421
2015-08-21T00:45:11.237Z,74427
2015-08-21T00:45:23.627Z,74426
2015-08-21T00:45:36.004Z,74420
2015-08-21T00:45:48.379Z,74426
2015-08-21T00:46:00.051Z,74418
2015-08-21T00:46:12.442Z,74430
2015-08-21T00:46:24.817Z,74425
2015-08-21T00:46:37.209Z,74421
2015-08-21T00:46:49.616Z,74425
2015-08-21T00:47:02.022Z,74426
2015-08-21T00:47:14.444Z,74418
2015-08-21T00:47:26.834Z,74426
2015-08-21T00:47:39.243Z,74423
2015-08-21T00:47:51.633Z,74424
2015-08-21T00:48:04.040Z,74423
2015-08-21T00:48:16.446Z,74421
2015-08-21T00:48:28.836Z,74430
2015-08-21T00:48:41.245Z,74420
2015-08-21T00:48:53.635Z,74421
2015-08-21T00:49:06.042Z,74428
2015-08-21T00:49:18.463Z,74423
2015-08-21T00:49:30.838Z,74424
2015-08-21T00:49:43.215Z,74426
2015-08-21T00:49:55.590Z,74422
2015-08-21T00:50:07.965Z,74422
2015-08-21T00:50:20.340Z,74419
2015-08-21T00:50:32.700Z,74419
2015-08-21T00:50:45.077Z,74424
2015-08-21T00:50:57.452Z,74417
2015-08-21T00:51:09.827Z,74424
2015-08-21T00:51:22.202Z,74419
2015-08-21T00:51:34.577Z,74416
2015-08-21T00:51:46.937Z,74424
2015-08-21T00:51:59.312Z,74419
2015-08-21T00:52:11.687Z,74420
2015-08-21T00:52:24.093Z,74425
2015-08-21T00:52:36.468Z,74416
2015-08-21T00:52:48.846Z,74415
2015-08-21T00:53:01.221Z,74424
2015-08-21T00:53:13.581Z,74416
2015-08-21T00:53:25.956Z,74416
2015-08-21T00:53:38.331Z,74417
2015-08-21T00:53:50.708Z,74413
2015-08-21T00:54:03.098Z,74422
2015-08-21T00:54:15.473Z,74411
2015-08-21T00:54:27.848Z,74417
2015-08-21T00:54:40.223Z,74417
2015-08-21T00:54:52.600Z,74413
2015-08-21T00:55:04.975Z,74419
2015-08-21T00:55:17.350Z,74403
2015-08-21T00:55:29.741Z,74420
2015-08-21T00:55:42.116Z,74413
2015-08-21T00:55:54.509Z,74416
2015-08-21T00:56:06.899Z,74419
2015-08-21T00:56:19.290Z,74411
2015-08-21T00:56:31.696Z,74413
2015-08-21T00:56:44.102Z,74408
2015-08-21T00:56:56.511Z,74423
2015-08-21T00:57:09.058Z,74410
2015-08-21T00:57:21.683Z,74410
2015-08-21T00:57:34.167Z,74413
2015-08-21T00:57:51.856Z,74419
2015-08-21T00:58:04.263Z,74411
2015-08-21T00:58:16.513Z,74422
2015-08-21T00:58:28.903Z,74417
2015-08-21T00:58:41.310Z,74411
2015-08-21T00:58:58.326Z,74410
2015-08-21T00:59:12.014Z,74418
2015-08-21T00:59:25.311Z,74412
2015-08-21T00:59:38.279Z,74411
2015-08-21T00:59:50.795Z,74416
2015-08-21T01:00:03.017Z,74408
2015-08-21T01:00:15.392Z,74422
2015-08-21T01:00:27.767Z,74412
2015-08-21T01:00:40.126Z,74405
2015-08-21T01:00:52.517Z,74410
2015-08-21T01:01:04.894Z,74405
2015-08-21T01:01:17.441Z,74413
2015-08-21T01:01:30.472Z,74414
2015-08-21T01:01:43.737Z,74409
2015-08-21T01:01:57.535Z,74411
2015-08-21T01:02:12.832Z,74410
2015-08-21T01:02:25.676Z,74408
2015-08-21T01:02:38.801Z,74405
2015-08-21T01:02:51.113Z,74414
2015-08-21T01:03:03.554Z,74407
2015-08-21T01:03:15.960Z,74408
2015-08-21T01:03:28.366Z,74419
2015-08-21T01:03:40.616Z,74404
2015-08-21T01:03:53.757Z,74416
2015-08-21T01:04:06.212Z,74413
2015-08-21T01:04:18.165Z,74409
2015-08-21T01:04:30.540Z,74413
2015-08-21T01:04:42.759Z,74405
2015-08-21T01:04:55.197Z,74413
2015-08-21T01:05:07.620Z,74404
2015-08-21T01:05:23.683Z,74411
2015-08-21T01:05:36.777Z,74406
2015-08-21T01:05:49.589Z,74415
2015-08-21T01:06:01.701Z,74406
2015-08-21T01:06:14.294Z,74413
2015-08-21T01:06:25.716Z,74410
2015-08-21T01:06:38.154Z,74410
2015-08-21T01:06:50.982Z,74414
2015-08-21T01:07:03.421Z,74404
2015-08-21T01:07:15.859Z,74407
2015-08-21T01:07:28.265Z,74408
2015-08-21T01:07:40.671Z,74405
2015-08-21T01:07:53.078Z,74412
2015-08-21T01:08:05.814Z,74400
2015-08-21T01:08:18.220Z,74402
2015-08-21T01:08:30.642Z,74408
2015-08-21T01:08:43.126Z,74407
2015-08-21T01:08:55.892Z,74409
2015-08-21T01:09:08.269Z,74407
2015-08-21T01:09:20.644Z,74406
2015-08-21T01:09:33.035Z,74413
2015-08-21T01:09:45.410Z,74409
2015-08-21T01:09:57.785Z,74409
2015-08-21T01:10:10.004Z,74407
2015-08-21T01:10:21.676Z,74405
2015-08-21T01:10:34.051Z,74409
2015-08-21T01:10:46.442Z,74406
2015-08-21T01:10:58.708Z,74409
2015-08-21T01:11:11.085Z,74411
2015-08-21T01:11:23.460Z,74404
2015-08-21T01:11:35.835Z,74409
2015-08-21T01:11:48.210Z,74403
2015-08-21T01:12:00.631Z,74408
2015-08-21T01:12:13.008Z,74408
2015-08-21T01:12:25.383Z,74404
2015-08-21T01:12:37.774Z,74408
2015-08-21T01:12:50.149Z,74404
2015-08-21T01:13:02.524Z,74405
2015-08-21T01:13:14.901Z,74413
2015-08-21T01:13:27.401Z,74406
2015-08-21T01:13:39.776Z,74403
2015-08-21T01:13:52.151Z,74400
2015-08-21T01:14:04.526Z,74402
2015-08-21T01:14:16.903Z,74405
2015-08-21T01:14:29.278Z,74404
2015-08-21T01:14:41.653Z,74404
2015-08-21T01:14:54.044Z,74409
2015-08-21T01:15:06.419Z,74403
2015-08-21T01:15:18.796Z,74409
2015-08-21T01:15:31.171Z,74399
2015-08-21T01:15:43.546Z,74402
2015-08-21T01:15:55.952Z,74405
2015-08-21T01:16:08.186Z,74401
2015-08-21T01:16:20.641Z,74408
2015-08-21T01:16:33.048Z,74401
2015-08-21T01:16:44.766Z,74409
2015-08-21T01:16:57.173Z,74408
2015-08-21T01:17:09.579Z,74398
2015-08-21T01:17:21.972Z,74406
2015-08-21T01:17:34.362Z,74399
2015-08-21T01:17:46.831Z,74402
2015-08-21T01:17:59.097Z,74411
2015-08-21T01:18:11.503Z,74404
2015-08-21T01:18:23.927Z,74411
2015-08-21T01:18:36.302Z,74408
2015-08-21T01:18:48.677Z,74403
2015-08-21T01:19:01.036Z,74411
2015-08-21T01:19:13.411Z,74403
2015-08-21T01:19:25.788Z,74405
2015-08-21T01:19:38.163Z,74401
2015-08-21T01:19:50.538Z,74402
2015-08-21T01:20:02.929Z,74409
2015-08-21T01:20:15.304Z,74401
2015-08-21T01:20:27.681Z,74401
2015-08-21T01:20:40.056Z,74406
2015-08-21T01:20:52.431Z,74403
2015-08-21T01:21:04.806Z,74412
2015-08-21T01:21:17.196Z,74401
2015-08-21T01:21:29.573Z,74412
2015-08-21T01:21:41.948Z,74398
2015-08-21T01:21:54.323Z,74406
2015-08-21T01:22:06.698Z,74408
2015-08-21T01:22:19.073Z,74395
2015-08-21T01:22:31.451Z,74408
2015-08-21T01:22:43.826Z,74397
2015-08-21T01:22:56.217Z,74403
2015-08-21T01:23:07.889Z,74398
2015-08-21T01:23:20.279Z,74398
2015-08-21T01:23:32.640Z,74408
2015-08-21T01:23:45.015Z,74396
2015-08-21T01:23:57.405Z,74403
2015-08-21T01:24:09.765Z,74401
2015-08-21T01:24:21.999Z,74401
2015-08-21T01:24:34.376Z,74405
2015-08-21T01:24:46.767Z,74398
2015-08-21T01:24:59.001Z,74401
2015-08-21T01:25:11.392Z,74399
2015-08-21T01:25:23.782Z,74404
2015-08-21T01:25:36.175Z,74401
2015-08-21T01:25:48.566Z,74400
2015-08-21T01:26:00.956Z,74397
2015-08-21T01:26:13.191Z,74400
2015-08-21T01:26:25.581Z,74396
2015-08-21T01:26:37.974Z,74402
2015-08-21T01:26:50.365Z,74397
2015-08-21T01:27:02.755Z,74401
2015-08-21T01:27:15.068Z,74399
2015-08-21T01:27:27.474Z,74400
2015-08-21T01:27:39.882Z,74398
2015-08-21T01:27:52.273Z,74394
2015-08-21T01:28:04.648Z,74399
2015-08-21T01:28:17.007Z,74394
2015-08-21T01:28:29.367Z,74402
2015-08-21T01:28:41.759Z,74401
2015-08-21T01:28:54.119Z,74395
2015-08-21T01:29:06.494Z,74400
2015-08-21T01:29:18.869Z,74398
2015-08-21T01:29:31.244Z,74399
2015-08-21T01:29:43.621Z,74393
2015-08-21T01:29:55.996Z,74401
2015-08-21T01:30:08.371Z,74400
2015-08-21T01:30:20.746Z,74398
2015-08-21T01:30:33.105Z,74401
2015-08-21T01:30:45.482Z,74396
2015-08-21T01:30:57.857Z,74406
2015-08-21T01:31:10.216Z,74392
2015-08-21T01:31:22.591Z,74400
2015-08-21T01:31:34.966Z,74396
2015-08-21T01:31:47.343Z,74395
2015-08-21T01:31:59.718Z,74397
2015-08-21T01:32:12.093Z,74394
2015-08-21T01:32:24.484Z,74392
2015-08-21T01:32:36.859Z,74391
2015-08-21T01:32:49.236Z,74392
2015-08-21T01:33:01.611Z,74404
2015-08-21T01:33:13.970Z,74395
2015-08-21T01:33:26.345Z,74394
2015-08-21T01:33:38.720Z,74402
2015-08-21T01:33:51.113Z,74391
2015-08-21T01:34:03.488Z,74401
2015-08-21T01:34:15.863Z,74391
2015-08-21T01:34:28.238Z,74399
2015-08-21T01:34:40.629Z,74403
2015-08-21T01:34:53.037Z,74392
2015-08-21T01:35:05.427Z,74396
2015-08-21T01:35:17.834Z,74396
2015-08-21T01:35:29.521Z,74393
2015-08-21T01:35:41.912Z,74398
2015-08-21T01:35:54.320Z,74395
2015-08-21T01:36:06.711Z,74397
2015-08-21T01:36:19.133Z,74398
2015-08-21T01:36:31.523Z,74395
2015-08-21T01:36:43.945Z,74406
2015-08-21T01:36:56.338Z,74395
2015-08-21T01:37:08.728Z,74395
2015-08-21T01:37:21.150Z,74396
2015-08-21T01:37:33.510Z,74393
2015-08-21T01:37:45.885Z,74401
2015-08-21T01:37:58.261Z,74391
2015-08-21T01:38:10.636Z,74405
2015-08-21T01:38:22.995Z,74395
2015-08-21T01:38:35.354Z,74403
2015-08-21T01:38:47.714Z,74396
2015-08-21T01:39:00.076Z,74394
2015-08-21T01:39:12.467Z,74403
2015-08-21T01:39:24.842Z,74393
2015-08-21T01:39:37.217Z,74400
2015-08-21T01:39:49.576Z,74391
2015-08-21T01:40:01.953Z,74396
2015-08-21T01:40:14.328Z,74395
2015-08-21T01:40:25.984Z,74397
2015-08-21T01:40:38.375Z,74401
2015-08-21T01:40:50.734Z,74397
2015-08-21T01:41:03.111Z,74398
2015-08-21T01:41:15.471Z,74394
2015-08-21T01:41:27.830Z,74398
2015-08-21T01:41:40.205Z,74397
2015-08-21T01:41:52.580Z,74395
2015-08-21T01:42:04.957Z,74399
2015-08-21T01:42:17.332Z,74387
2015-08-21T01:42:29.551Z,74399
2015-08-21T01:42:41.926Z,74392
2015-08-21T01:42:54.301Z,74395
2015-08-21T01:43:06.678Z,74395
2015-08-21T01:43:18.897Z,74393
2015-08-21T01:43:31.131Z,74397
2015-08-21T01:43:43.506Z,74398
2015-08-21T01:43:55.881Z,74399
2015-08-21T01:44:08.258Z,74392
2015-08-21T01:44:20.633Z,74394
2015-08-21T01:44:33.024Z,74394
2015-08-21T01:44:45.414Z,74390
2015-08-21T01:44:57.852Z,74397
2015-08-21T01:45:10.260Z,74399
2015-08-21T01:45:22.666Z,74392
2015-08-21T01:45:35.057Z,74393
2015-08-21T01:45:47.447Z,74402
2015-08-21T01:45:59.854Z,74389
2015-08-21T01:46:12.277Z,74397
2015-08-21T01:46:24.667Z,74392
2015-08-21T01:46:37.073Z,74388
2015-08-21T01:46:49.480Z,74389
2015-08-21T01:47:01.870Z,74399
2015-08-21T01:47:14.248Z,74394
2015-08-21T01:47:26.623Z,74393
2015-08-21T01:47:38.998Z,74398
2015-08-21T01:47:51.373Z,74394
2015-08-21T01:48:03.748Z,74390
2015-08-21T01:48:16.141Z,74392
2015-08-21T01:48:28.516Z,74391
2015-08-21T01:48:40.891Z,74388
2015-08-21T01:48:52.563Z,74392
2015-08-21T01:49:04.938Z,74388
2015-08-21T01:49:17.314Z,74388
2015-08-21T01:49:29.689Z,74387
2015-08-21T01:49:42.064Z,74389
2015-08-21T01:49:54.439Z,74391
2015-08-21T01:50:06.814Z,74394
2015-08-21T01:50:19.206Z,74394
2015-08-21T01:50:31.581Z,74397
2015-08-21T01:50:43.956Z,74385
2015-08-21T01:50:56.331Z,74390
2015-08-21T01:51:08.706Z,74387
2015-08-21T01:51:20.365Z,74389
2015-08-21T01:51:32.755Z,74392
2015-08-21T01:51:45.130Z,74385
2015-08-21T01:51:57.505Z,74391
2015-08-21T01:52:09.880Z,74389
2015-08-21T01:52:22.258Z,74385
2015-08-21T01:52:34.633Z,74389
2015-08-21T01:52:47.008Z,74391
2015-08-21T01:52:59.399Z,74387
2015-08-21T01:53:11.774Z,74388
2015-08-21T01:53:24.166Z,74389
2015-08-21T01:53:36.556Z,74384
2015-08-21T01:53:48.791Z,74387
2015-08-21T01:54:01.181Z,74392
2015-08-21T01:54:13.587Z,74384
2015-08-21T01:54:25.997Z,74386
2015-08-21T01:54:38.387Z,74384
2015-08-21T01:54:50.794Z,74378
2015-08-21T01:55:03.200Z,74388
2015-08-21T01:55:15.590Z,74388
2015-08-21T01:55:27.998Z,74384
2015-08-21T01:55:40.435Z,74385
2015-08-21T01:55:52.841Z,74384
2015-08-21T01:56:05.232Z,74383
2015-08-21T01:56:17.638Z,74382
2015-08-21T01:56:30.047Z,74387
2015-08-21T01:56:42.422Z,74379
2015-08-21T01:56:54.797Z,74386
2015-08-21T01:57:07.172Z,74382
2015-08-21T01:57:19.547Z,74378
2015-08-21T01:57:31.908Z,74383
2015-08-21T01:57:44.283Z,74392
2015-08-21T01:57:56.502Z,74381
2015-08-21T01:58:08.892Z,74386
2015-08-21T01:58:21.111Z,74380
2015-08-21T01:58:33.395Z,74383
2015-08-21T01:58:45.770Z,74390
2015-08-21T01:58:58.145Z,74378
2015-08-21T01:59:10.355Z,74383
2015-08-21T01:59:22.683Z,74377
2015-08-21T01:59:35.122Z,74384
2015-08-21T01:59:47.497Z,74383
2015-08-21T01:59:59.888Z,74379
2015-08-21T02:00:12.263Z,74382
2015-08-21T02:00:24.638Z,74377
2015-08-21T02:00:37.015Z,74376
2015-08-21T02:00:49.390Z,74378
2015-08-21T02:01:01.780Z,74380
2015-08-21T02:01:14.155Z,74382
2015-08-21T02:01:25.811Z,74370
2015-08-21T02:01:38.188Z,74379
2015-08-21T02:01:50.563Z,74375
2015-08-21T02:02:02.938Z,74375
2015-08-21T02:02:15.313Z,74381
2015-08-21T02:02:27.532Z,74375
2015-08-21T02:02:39.925Z,74385
2015-08-21T02:02:52.300Z,74371
2015-08-21T02:03:04.675Z,74384
2015-08-21T02:03:17.081Z,74383
2015-08-21T02:03:29.472Z,74375
2015-08-21T02:03:41.865Z,74380
2015-08-21T02:03:54.272Z,74376
2015-08-21T02:04:06.662Z,74375
2015-08-21T02:04:19.084Z,74382
2015-08-21T02:04:31.475Z,74368
2015-08-21T02:04:43.867Z,74371
2015-08-21T02:04:56.258Z,74374
2015-08-21T02:05:08.649Z,74381
2015-08-21T02:05:21.117Z,74377
2015-08-21T02:05:33.508Z,74374
2015-08-21T02:05:45.915Z,74373
2015-08-21T02:05:58.306Z,74373
2015-08-21T02:06:10.712Z,74376
2015-08-21T02:06:22.931Z,74375
2015-08-21T02:06:35.306Z,74372
2015-08-21T02:06:47.667Z,74377
2015-08-21T02:07:00.027Z,74370
2015-08-21T02:07:12.386Z,74375
2015-08-21T02:07:24.745Z,74375
2015-08-21T02:07:37.167Z,74373
2015-08-21T02:07:49.544Z,74378
2015-08-21T02:08:01.919Z,74374
2015-08-21T02:08:14.294Z,74370
2015-08-21T02:08:26.669Z,74373
2015-08-21T02:08:39.029Z,74376
2015-08-21T02:08:51.406Z,74374
2015-08-21T02:09:03.781Z,74367
2015-08-21T02:09:16.156Z,74372
2015-08-21T02:09:28.531Z,74379
2015-08-21T02:09:40.906Z,74379
2015-08-21T02:09:53.283Z,74380
2015-08-21T02:10:05.658Z,74374
2015-08-21T02:10:18.017Z,74376
2015-08-21T02:10:30.392Z,74381
2015-08-21T02:10:42.767Z,74374
2015-08-21T02:10:55.144Z,74381
2015-08-21T02:11:07.503Z,74373
2015-08-21T02:11:19.878Z,74376
2015-08-21T02:11:32.253Z,74371
2015-08-21T02:11:44.628Z,74378
2015-08-21T02:11:56.990Z,74373
2015-08-21T02:12:09.396Z,74370
2015-08-21T02:12:21.771Z,74375
2015-08-21T02:12:34.146Z,74371
2015-08-21T02:12:46.552Z,74378
2015-08-21T02:12:58.929Z,74375
2015-08-21T02:13:11.335Z,74374
2015-08-21T02:13:23.570Z,74378
2015-08-21T02:13:35.976Z,74383
2015-08-21T02:13:48.382Z,74375
2015-08-21T02:14:00.650Z,74374
2015-08-21T02:14:13.056Z,74377
2015-08-21T02:14:25.447Z,74374
2015-08-21T02:14:37.697Z,74379
2015-08-21T02:14:50.087Z,74372
2015-08-21T02:15:01.793Z,74377
2015-08-21T02:15:14.214Z,74377
2015-08-21T02:15:26.621Z,74381
2015-08-21T02:15:39.027Z,74372
2015-08-21T02:15:51.496Z,74373
2015-08-21T02:16:03.857Z,74378
2015-08-21T02:16:16.232Z,74374
2015-08-21T02:16:28.607Z,74378
2015-08-21T02:16:40.998Z,74376
2015-08-21T02:16:53.373Z,74384
2015-08-21T02:17:05.750Z,74376
2015-08-21T02:17:18.140Z,74380
2015-08-21T02:17:30.515Z,74373
2015-08-21T02:17:42.890Z,74376
2015-08-21T02:17:55.265Z,74370
2015-08-21T02:18:07.642Z,74376
2015-08-21T02:18:20.017Z,74377
2015-08-21T02:18:32.392Z,74379
2015-08-21T02:18:44.767Z,74373
2015-08-21T02:18:57.158Z,74375
2015-08-21T02:19:09.535Z,74369
2015-08-21T02:19:21.910Z,74376
2015-08-21T02:19:34.285Z,74371
2015-08-21T02:19:45.238Z,74372
2015-08-21T02:19:57.597Z,74377
2015-08-21T02:20:09.973Z,74365
2015-08-21T02:20:22.348Z,74374
2015-08-21T02:20:34.786Z,74366
2015-08-21T02:20:47.161Z,74383
2015-08-21T02:20:59.536Z,74374
2015-08-21T02:21:11.914Z,74375
2015-08-21T02:21:24.289Z,74372
2015-08-21T02:21:36.664Z,74367
2015-08-21T02:21:49.055Z,74379
2015-08-21T02:22:01.430Z,74369
2015-08-21T02:22:13.822Z,74371
2015-08-21T02:22:26.197Z,74374
2015-08-21T02:22:38.588Z,74368
2015-08-21T02:22:50.978Z,74374
2015-08-21T02:23:03.385Z,74369
2015-08-21T02:23:15.793Z,74376
2015-08-21T02:23:27.480Z,74363
2015-08-21T02:23:39.902Z,74371
2015-08-21T02:23:52.309Z,74372
2015-08-21T02:24:04.699Z,74368
2015-08-21T02:24:17.092Z,74368
2015-08-21T02:24:29.498Z,74367
2015-08-21T02:24:41.936Z,74370
2015-08-21T02:24:54.326Z,74368
2015-08-21T02:25:06.717Z,74371
2015-08-21T02:25:18.969Z,74369
2015-08-21T02:25:31.344Z,74368
2015-08-21T02:25:43.703Z,74368
2015-08-21T02:25:56.078Z,74368
2015-08-21T02:26:08.453Z,74371
2015-08-21T02:26:20.815Z,74369
2015-08-21T02:26:32.486Z,74369
2015-08-21T02:26:44.861Z,74367
2015-08-21T02:26:57.236Z,74367
2015-08-21T02:27:09.627Z,74369
2015-08-21T02:27:22.004Z,74364
2015-08-21T02:27:34.379Z,74364
2015-08-21T02:27:46.754Z,74367
2015-08-21T02:27:58.973Z,74360
2015-08-21T02:28:11.348Z,74372
2015-08-21T02:28:23.584Z,74365
2015-08-21T02:28:35.944Z,74366
2015-08-21T02:28:48.319Z,74366
2015-08-21T02:29:00.694Z,74368
2015-08-21T02:29:13.069Z,74369
2015-08-21T02:29:25.446Z,74362
2015-08-21T02:29:37.836Z,74368
2015-08-21T02:29:50.211Z,74366
2015-08-21T02:30:02.586Z,74365
2015-08-21T02:30:14.961Z,74365
2015-08-21T02:30:27.353Z,74366
2015-08-21T02:30:39.728Z,74367
2015-08-21T02:30:52.103Z,74365
2015-08-21T02:31:04.478Z,74356
2015-08-21T02:31:16.868Z,74361
2015-08-21T02:31:29.261Z,74362
2015-08-21T02:31:40.933Z,74364
2015-08-21T02:31:53.324Z,74363
2015-08-21T02:32:05.542Z,74362
2015-08-21T02:32:17.933Z,74360
2015-08-21T02:32:30.341Z,74364
2015-08-21T02:32:42.747Z,74363
2015-08-21T02:32:54.435Z,74363
2015-08-21T02:33:06.857Z,74362
2015-08-21T02:33:19.263Z,74366
2015-08-21T02:33:31.656Z,74362
2015-08-21T02:33:44.062Z,74363
2015-08-21T02:33:56.484Z,74359
2015-08-21T02:34:08.890Z,74363
2015-08-21T02:34:21.296Z,74361
2015-08-21T02:34:33.705Z,74360
2015-08-21T02:34:46.111Z,74364
2015-08-21T02:34:58.486Z,74357
2015-08-21T02:35:10.861Z,74360
2015-08-21T02:35:23.236Z,74363
2015-08-21T02:35:35.613Z,74362
2015-08-21T02:35:47.988Z,74363
2015-08-21T02:36:00.363Z,74359
2015-08-21T02:36:12.738Z,74369
2015-08-21T02:36:25.113Z,74366
2015-08-21T02:36:37.490Z,74367
2015-08-21T02:36:49.865Z,74367
2015-08-21T02:37:02.240Z,74366
2015-08-21T02:37:13.896Z,74361
2015-08-21T02:37:26.271Z,74365
2015-08-21T02:37:38.664Z,74366
2015-08-21T02:37:50.351Z,74362
2015-08-21T02:38:02.726Z,74363
2015-08-21T02:38:15.101Z,74365
2015-08-21T02:38:27.492Z,74362
2015-08-21T02:38:39.869Z,74363
2015-08-21T02:38:52.244Z,74366
2015-08-21T02:39:04.619Z,74366
2015-08-21T02:39:17.009Z,74365
2015-08-21T02:39:29.384Z,74367